Altoona, Wisconsin
Current Conditions -  °F | °C
As of 3:51 PM on Wednesday 26 Nov 2014 (Local Time) from KEAU Reporting Station
Light Snow Light Snow  
Wind Chill: 17°   Ceiling: 3100
Heat Index: 24°   Visibility: 1.7mi
Dew Point: 20°   Wind: 6mph
Humidity: 84%   Direction: 310°NW
Pressure: 30.2"   Gusts: NA
Location:  44.81°N, 91.43°W
Report Text: KEAU 262151Z 31005KT 1 3/4SM -SN BR BKN031 M04/M07 A3020 RMK AO2 SLP242 P0000 T10441067
Loading
Personal Weather Stations






























Interactive Weather Map New forecast layout! Learn more

10-Day Weather Forecast

Advertisements
Track Severe Weather on mobile